sensor_id;sensor_type;location;lat;lon;timestamp;P1;durP1;ratioP1;P2;durP2;ratioP2
8683;SDS011;4379;59.744;18.206;2023-11-18T00:01:56;2.90;;;2.70;;
8683;SDS011;4379;59.744;18.206;2023-11-18T00:04:24;2.97;;;2.77;;
8683;SDS011;4379;59.744;18.206;2023-11-18T00:06:51;3.10;;;2.90;;
8683;SDS011;4379;59.744;18.206;2023-11-18T00:09:20;3.07;;;2.90;;
8683;SDS011;4379;59.744;18.206;2023-11-18T00:11:51;3.03;;;2.83;;
8683;SDS011;4379;59.744;18.206;2023-11-18T00:14:18;2.90;;;2.70;;
8683;SDS011;4379;59.744;18.206;2023-11-18T00:16:47;3.03;;;2.90;;
8683;SDS011;4379;59.744;18.206;2023-11-18T00:19:14;3.13;;;2.93;;
8683;SDS011;4379;59.744;18.206;2023-11-18T00:21:41;3.23;;;3.03;;
8683;SDS011;4379;59.744;18.206;2023-11-18T00:24:09;3.40;;;3.20;;
8683;SDS011;4379;59.744;18.206;2023-11-18T00:26:36;3.23;;;3.03;;
8683;SDS011;4379;59.744;18.206;2023-11-18T00:29:03;3.17;;;2.97;;
8683;SDS011;4379;59.744;18.206;2023-11-18T00:31:31;3.37;;;3.17;;
8683;SDS011;4379;59.744;18.206;2023-11-18T00:33:58;3.10;;;2.90;;
8683;SDS011;4379;59.744;18.206;2023-11-18T00:36:25;3.30;;;3.10;;
8683;SDS011;4379;59.744;18.206;2023-11-18T00:38:53;3.03;;;2.83;;
8683;SDS011;4379;59.744;18.206;2023-11-18T00:41:20;3.07;;;2.87;;
8683;SDS011;4379;59.744;18.206;2023-11-18T00:43:47;3.20;;;3.10;;
8683;SDS011;4379;59.744;18.206;2023-11-18T00:46:14;3.40;;;3.20;;
8683;SDS011;4379;59.744;18.206;2023-11-18T00:48:42;3.40;;;3.17;;
8683;SDS011;4379;59.744;18.206;2023-11-18T00:51:09;3.63;;;3.43;;
8683;SDS011;4379;59.744;18.206;2023-11-18T00:53:36;3.20;;;3.00;;
8683;SDS011;4379;59.744;18.206;2023-11-18T00:56:03;3.20;;;3.00;;
8683;SDS011;4379;59.744;18.206;2023-11-18T00:58:34;3.43;;;3.20;;
8683;SDS011;4379;59.744;18.206;2023-11-18T01:01:07;2.90;;;2.73;;
8683;SDS011;4379;59.744;18.206;2023-11-18T01:03:34;3.33;;;3.13;;
8683;SDS011;4379;59.744;18.206;2023-11-18T01:06:01;3.50;;;3.30;;
8683;SDS011;4379;59.744;18.206;2023-11-18T01:08:28;2.90;;;2.80;;
8683;SDS011;4379;59.744;18.206;2023-11-18T01:10:56;3.47;;;3.27;;
8683;SDS011;4379;59.744;18.206;2023-11-18T01:13:23;3.30;;;3.00;;
8683;SDS011;4379;59.744;18.206;2023-11-18T01:15:50;3.40;;;3.20;;
8683;SDS011;4379;59.744;18.206;2023-11-18T01:18:17;3.07;;;2.97;;
8683;SDS011;4379;59.744;18.206;2023-11-18T01:20:44;3.30;;;3.10;;
8683;SDS011;4379;59.744;18.206;2023-11-18T01:23:11;3.30;;;3.10;;
8683;SDS011;4379;59.744;18.206;2023-11-18T01:25:38;2.77;;;2.67;;
8683;SDS011;4379;59.744;18.206;2023-11-18T01:28:06;3.20;;;3.00;;
8683;SDS011;4379;59.744;18.206;2023-11-18T01:30:33;2.97;;;2.87;;
8683;SDS011;4379;59.744;18.206;2023-11-18T01:33:00;3.20;;;3.00;;
8683;SDS011;4379;59.744;18.206;2023-11-18T01:35:27;3.20;;;3.00;;
8683;SDS011;4379;59.744;18.206;2023-11-18T01:37:55;3.00;;;2.80;;
8683;SDS011;4379;59.744;18.206;2023-11-18T01:40:22;3.40;;;3.10;;
8683;SDS011;4379;59.744;18.206;2023-11-18T01:42:50;3.00;;;2.90;;
8683;SDS011;4379;59.744;18.206;2023-11-18T01:45:17;3.20;;;3.00;;
8683;SDS011;4379;59.744;18.206;2023-11-18T01:47:44;3.20;;;3.00;;
8683;SDS011;4379;59.744;18.206;2023-11-18T01:50:14;2.97;;;2.87;;
8683;SDS011;4379;59.744;18.206;2023-11-18T01:52:44;2.80;;;2.60;;
8683;SDS011;4379;59.744;18.206;2023-11-18T01:55:13;2.90;;;2.80;;
8683;SDS011;4379;59.744;18.206;2023-11-18T01:57:40;3.40;;;3.20;;
8683;SDS011;4379;59.744;18.206;2023-11-18T02:00:11;3.33;;;3.03;;
8683;SDS011;4379;59.744;18.206;2023-11-18T02:02:39;3.03;;;2.87;;
8683;SDS011;4379;59.744;18.206;2023-11-18T02:05:07;3.07;;;2.87;;
8683;SDS011;4379;59.744;18.206;2023-11-18T02:07:34;3.13;;;2.93;;
8683;SDS011;4379;59.744;18.206;2023-11-18T02:10:05;2.93;;;2.80;;
8683;SDS011;4379;59.744;18.206;2023-11-18T02:12:43;2.70;;;2.60;;
8683;SDS011;4379;59.744;18.206;2023-11-18T02:15:16;2.90;;;2.70;;
8683;SDS011;4379;59.744;18.206;2023-11-18T02:17:44;2.63;;;2.50;;
8683;SDS011;4379;59.744;18.206;2023-11-18T02:20:12;2.50;;;2.40;;
8683;SDS011;4379;59.744;18.206;2023-11-18T02:22:42;2.60;;;2.47;;
8683;SDS011;4379;59.744;18.206;2023-11-18T02:25:10;2.90;;;2.80;;
8683;SDS011;4379;59.744;18.206;2023-11-18T02:27:43;3.63;;;3.43;;
8683;SDS011;4379;59.744;18.206;2023-11-18T02:30:12;2.70;;;2.50;;
8683;SDS011;4379;59.744;18.206;2023-11-18T02:35:23;2.70;;;2.60;;
8683;SDS011;4379;59.744;18.206;2023-11-18T02:37:54;3.07;;;2.87;;
8683;SDS011;4379;59.744;18.206;2023-11-18T02:40:26;3.20;;;3.00;;
8683;SDS011;4379;59.744;18.206;2023-11-18T02:43:05;3.60;;;3.30;;
8683;SDS011;4379;59.744;18.206;2023-11-18T02:45:34;2.97;;;2.77;;
8683;SDS011;4379;59.744;18.206;2023-11-18T02:48:03;3.30;;;3.00;;
8683;SDS011;4379;59.744;18.206;2023-11-18T02:50:33;2.70;;;2.50;;
8683;SDS011;4379;59.744;18.206;2023-11-18T02:53:02;2.70;;;2.60;;
8683;SDS011;4379;59.744;18.206;2023-11-18T02:55:29;3.30;;;3.10;;
8683;SDS011;4379;59.744;18.206;2023-11-18T02:57:57;2.90;;;2.80;;
8683;SDS011;4379;59.744;18.206;2023-11-18T03:00:24;2.60;;;2.47;;
8683;SDS011;4379;59.744;18.206;2023-11-18T03:02:51;2.57;;;2.47;;
8683;SDS011;4379;59.744;18.206;2023-11-18T03:05:19;3.10;;;2.90;;
8683;SDS011;4379;59.744;18.206;2023-11-18T03:07:48;2.77;;;2.57;;
8683;SDS011;4379;59.744;18.206;2023-11-18T03:10:20;2.80;;;2.70;;
8683;SDS011;4379;59.744;18.206;2023-11-18T03:12:52;2.60;;;2.50;;
8683;SDS011;4379;59.744;18.206;2023-11-18T03:15:20;3.10;;;2.90;;
8683;SDS011;4379;59.744;18.206;2023-11-18T03:17:49;2.90;;;2.80;;
8683;SDS011;4379;59.744;18.206;2023-11-18T03:20:18;2.93;;;2.73;;
8683;SDS011;4379;59.744;18.206;2023-11-18T03:22:49;2.80;;;2.60;;
8683;SDS011;4379;59.744;18.206;2023-11-18T03:25:18;2.50;;;2.40;;
8683;SDS011;4379;59.744;18.206;2023-11-18T03:27:48;2.90;;;2.80;;
8683;SDS011;4379;59.744;18.206;2023-11-18T03:30:15;2.73;;;2.63;;
8683;SDS011;4379;59.744;18.206;2023-11-18T03:32:43;3.00;;;2.80;;
8683;SDS011;4379;59.744;18.206;2023-11-18T03:35:10;3.27;;;3.07;;
8683;SDS011;4379;59.744;18.206;2023-11-18T03:37:38;3.13;;;2.93;;
8683;SDS011;4379;59.744;18.206;2023-11-18T03:40:08;3.43;;;3.20;;
8683;SDS011;4379;59.744;18.206;2023-11-18T03:42:35;3.20;;;3.00;;
8683;SDS011;4379;59.744;18.206;2023-11-18T03:45:03;3.13;;;2.93;;
8683;SDS011;4379;59.744;18.206;2023-11-18T03:47:31;3.50;;;3.30;;
8683;SDS011;4379;59.744;18.206;2023-11-18T03:50:00;3.23;;;3.03;;
8683;SDS011;4379;59.744;18.206;2023-11-18T03:52:28;3.47;;;3.27;;
8683;SDS011;4379;59.744;18.206;2023-11-18T03:54:55;3.20;;;3.10;;
8683;SDS011;4379;59.744;18.206;2023-11-18T03:57:22;3.40;;;3.20;;
8683;SDS011;4379;59.744;18.206;2023-11-18T03:59:53;3.93;;;3.63;;
8683;SDS011;4379;59.744;18.206;2023-11-18T04:02:20;3.90;;;3.60;;
8683;SDS011;4379;59.744;18.206;2023-11-18T04:04:47;3.87;;;3.67;;
8683;SDS011;4379;59.744;18.206;2023-11-18T04:07:15;3.77;;;3.53;;
8683;SDS011;4379;59.744;18.206;2023-11-18T04:09:42;3.50;;;3.30;;
8683;SDS011;4379;59.744;18.206;2023-11-18T04:12:10;3.57;;;3.30;;
8683;SDS011;4379;59.744;18.206;2023-11-18T04:14:37;3.40;;;3.20;;
8683;SDS011;4379;59.744;18.206;2023-11-18T04:17:04;4.03;;;3.73;;
8683;SDS011;4379;59.744;18.206;2023-11-18T04:19:34;3.80;;;3.60;;
8683;SDS011;4379;59.744;18.206;2023-11-18T04:22:01;4.13;;;3.87;;
8683;SDS011;4379;59.744;18.206;2023-11-18T04:24:28;4.00;;;3.70;;
8683;SDS011;4379;59.744;18.206;2023-11-18T04:26:56;4.03;;;3.63;;
8683;SDS011;4379;59.744;18.206;2023-11-18T04:29:24;4.00;;;3.73;;
8683;SDS011;4379;59.744;18.206;2023-11-18T04:31:50;4.57;;;3.40;;
8683;SDS011;4379;59.744;18.206;2023-11-18T04:34:20;3.83;;;3.63;;
8683;SDS011;4379;59.744;18.206;2023-11-18T04:36:47;3.13;;;2.93;;
8683;SDS011;4379;59.744;18.206;2023-11-18T04:39:14;3.30;;;3.10;;
8683;SDS011;4379;59.744;18.206;2023-11-18T04:41:42;3.23;;;2.97;;
8683;SDS011;4379;59.744;18.206;2023-11-18T04:44:10;3.50;;;3.30;;
8683;SDS011;4379;59.744;18.206;2023-11-18T04:46:37;3.80;;;3.50;;
8683;SDS011;4379;59.744;18.206;2023-11-18T04:49:04;3.70;;;3.50;;
8683;SDS011;4379;59.744;18.206;2023-11-18T04:51:32;3.70;;;3.50;;
8683;SDS011;4379;59.744;18.206;2023-11-18T04:53:59;3.87;;;3.67;;
8683;SDS011;4379;59.744;18.206;2023-11-18T04:56:27;3.40;;;3.20;;
8683;SDS011;4379;59.744;18.206;2023-11-18T04:58:54;3.73;;;3.53;;
8683;SDS011;4379;59.744;18.206;2023-11-18T05:01:21;4.00;;;3.70;;
8683;SDS011;4379;59.744;18.206;2023-11-18T05:03:48;4.07;;;3.87;;
8683;SDS011;4379;59.744;18.206;2023-11-18T05:06:15;3.50;;;3.30;;
8683;SDS011;4379;59.744;18.206;2023-11-18T05:08:42;3.70;;;3.50;;
8683;SDS011;4379;59.744;18.206;2023-11-18T05:11:09;3.67;;;3.47;;
8683;SDS011;4379;59.744;18.206;2023-11-18T05:13:36;4.70;;;4.23;;
8683;SDS011;4379;59.744;18.206;2023-11-18T05:16:06;4.90;;;4.50;;
8683;SDS011;4379;59.744;18.206;2023-11-18T05:18:33;4.20;;;4.00;;
8683;SDS011;4379;59.744;18.206;2023-11-18T05:21:03;4.67;;;4.30;;
8683;SDS011;4379;59.744;18.206;2023-11-18T05:23:34;4.73;;;4.43;;
8683;SDS011;4379;59.744;18.206;2023-11-18T05:26:05;4.53;;;4.23;;
8683;SDS011;4379;59.744;18.206;2023-11-18T05:28:32;4.50;;;4.20;;
8683;SDS011;4379;59.744;18.206;2023-11-18T05:31:00;4.70;;;4.40;;
8683;SDS011;4379;59.744;18.206;2023-11-18T05:33:31;4.60;;;4.30;;
8683;SDS011;4379;59.744;18.206;2023-11-18T05:36:01;4.17;;;3.87;;
8683;SDS011;4379;59.744;18.206;2023-11-18T05:38:31;4.47;;;4.07;;
8683;SDS011;4379;59.744;18.206;2023-11-18T05:41:01;5.00;;;4.50;;
8683;SDS011;4379;59.744;18.206;2023-11-18T05:43:31;4.97;;;4.53;;
8683;SDS011;4379;59.744;18.206;2023-11-18T05:46:07;4.43;;;4.13;;
8683;SDS011;4379;59.744;18.206;2023-11-18T05:48:49;4.23;;;3.93;;
8683;SDS011;4379;59.744;18.206;2023-11-18T05:51:20;4.03;;;3.73;;
8683;SDS011;4379;59.744;18.206;2023-11-18T05:53:51;4.60;;;4.23;;
8683;SDS011;4379;59.744;18.206;2023-11-18T05:56:19;4.67;;;3.87;;
8683;SDS011;4379;59.744;18.206;2023-11-18T05:58:50;4.30;;;4.00;;
8683;SDS011;4379;59.744;18.206;2023-11-18T06:01:20;4.10;;;3.80;;
8683;SDS011;4379;59.744;18.206;2023-11-18T06:03:48;3.97;;;3.70;;
8683;SDS011;4379;59.744;18.206;2023-11-18T06:06:16;3.57;;;3.37;;
8683;SDS011;4379;59.744;18.206;2023-11-18T06:08:49;4.03;;;3.73;;
8683;SDS011;4379;59.744;18.206;2023-11-18T06:11:17;3.07;;;2.87;;
8683;SDS011;4379;59.744;18.206;2023-11-18T06:13:49;3.50;;;3.23;;
8683;SDS011;4379;59.744;18.206;2023-11-18T06:16:18;3.67;;;3.47;;
8683;SDS011;4379;59.744;18.206;2023-11-18T06:18:53;3.57;;;3.30;;
8683;SDS011;4379;59.744;18.206;2023-11-18T06:21:25;3.20;;;3.00;;
8683;SDS011;4379;59.744;18.206;2023-11-18T06:23:58;2.97;;;2.77;;
8683;SDS011;4379;59.744;18.206;2023-11-18T06:26:26;2.90;;;2.70;;
8683;SDS011;4379;59.744;18.206;2023-11-18T06:28:54;3.13;;;2.93;;
8683;SDS011;4379;59.744;18.206;2023-11-18T06:31:22;2.83;;;2.63;;
8683;SDS011;4379;59.744;18.206;2023-11-18T06:33:52;3.20;;;2.90;;
8683;SDS011;4379;59.744;18.206;2023-11-18T06:36:20;2.90;;;2.70;;
8683;SDS011;4379;59.744;18.206;2023-11-18T06:38:48;2.60;;;2.40;;
8683;SDS011;4379;59.744;18.206;2023-11-18T06:41:17;2.37;;;2.23;;
8683;SDS011;4379;59.744;18.206;2023-11-18T06:43:46;2.73;;;2.33;;
8683;SDS011;4379;59.744;18.206;2023-11-18T06:46:25;2.27;;;2.17;;
8683;SDS011;4379;59.744;18.206;2023-11-18T06:49:00;1.97;;;1.87;;
8683;SDS011;4379;59.744;18.206;2023-11-18T06:51:31;2.20;;;2.10;;
8683;SDS011;4379;59.744;18.206;2023-11-18T06:54:03;1.93;;;1.83;;
8683;SDS011;4379;59.744;18.206;2023-11-18T06:56:38;2.00;;;1.90;;
8683;SDS011;4379;59.744;18.206;2023-11-18T06:59:12;1.63;;;1.53;;
8683;SDS011;4379;59.744;18.206;2023-11-18T07:01:42;2.17;;;1.80;;
8683;SDS011;4379;59.744;18.206;2023-11-18T07:04:12;2.10;;;2.00;;
8683;SDS011;4379;59.744;18.206;2023-11-18T07:06:42;1.70;;;1.60;;
8683;SDS011;4379;59.744;18.206;2023-11-18T07:09:10;1.90;;;1.80;;
8683;SDS011;4379;59.744;18.206;2023-11-18T07:11:45;1.70;;;1.70;;
8683;SDS011;4379;59.744;18.206;2023-11-18T07:14:13;1.77;;;1.67;;
8683;SDS011;4379;59.744;18.206;2023-11-18T07:16:42;2.00;;;1.90;;
8683;SDS011;4379;59.744;18.206;2023-11-18T07:19:09;1.63;;;1.53;;
8683;SDS011;4379;59.744;18.206;2023-11-18T07:21:44;1.63;;;1.53;;
8683;SDS011;4379;59.744;18.206;2023-11-18T07:24:11;1.87;;;1.77;;
8683;SDS011;4379;59.744;18.206;2023-11-18T07:26:38;1.73;;;1.63;;
8683;SDS011;4379;59.744;18.206;2023-11-18T07:29:06;1.40;;;1.40;;
8683;SDS011;4379;59.744;18.206;2023-11-18T07:31:36;1.60;;;1.50;;
8683;SDS011;4379;59.744;18.206;2023-11-18T07:34:03;1.23;;;1.13;;
8683;SDS011;4379;59.744;18.206;2023-11-18T07:36:32;1.30;;;1.30;;
8683;SDS011;4379;59.744;18.206;2023-11-18T07:39:00;1.10;;;1.10;;
8683;SDS011;4379;59.744;18.206;2023-11-18T07:41:28;1.13;;;1.13;;
8683;SDS011;4379;59.744;18.206;2023-11-18T07:43:59;0.87;;;0.80;;
8683;SDS011;4379;59.744;18.206;2023-11-18T07:46:27;0.90;;;0.90;;
8683;SDS011;4379;59.744;18.206;2023-11-18T07:48:58;1.30;;;1.20;;
8683;SDS011;4379;59.744;18.206;2023-11-18T07:51:31;0.83;;;0.83;;
8683;SDS011;4379;59.744;18.206;2023-11-18T07:53:58;1.00;;;1.00;;
8683;SDS011;4379;59.744;18.206;2023-11-18T07:56:25;1.67;;;1.10;;
8683;SDS011;4379;59.744;18.206;2023-11-18T07:58:55;1.27;;;1.27;;
8683;SDS011;4379;59.744;18.206;2023-11-18T08:01:25;0.93;;;0.93;;
8683;SDS011;4379;59.744;18.206;2023-11-18T08:03:53;0.93;;;0.93;;
8683;SDS011;4379;59.744;18.206;2023-11-18T08:06:21;0.90;;;0.90;;
8683;SDS011;4379;59.744;18.206;2023-11-18T08:08:48;1.10;;;1.10;;
8683;SDS011;4379;59.744;18.206;2023-11-18T08:11:15;0.90;;;0.90;;
8683;SDS011;4379;59.744;18.206;2023-11-18T08:13:43;0.93;;;0.93;;
8683;SDS011;4379;59.744;18.206;2023-11-18T08:16:10;1.00;;;1.00;;
8683;SDS011;4379;59.744;18.206;2023-11-18T08:18:39;0.83;;;0.83;;
8683;SDS011;4379;59.744;18.206;2023-11-18T08:21:06;0.70;;;0.70;;
8683;SDS011;4379;59.744;18.206;2023-11-18T08:23:33;0.80;;;0.80;;
8683;SDS011;4379;59.744;18.206;2023-11-18T08:26:01;0.93;;;0.93;;
8683;SDS011;4379;59.744;18.206;2023-11-18T08:28:28;0.87;;;0.80;;
8683;SDS011;4379;59.744;18.206;2023-11-18T08:30:55;1.00;;;1.00;;
8683;SDS011;4379;59.744;18.206;2023-11-18T08:33:22;0.60;;;0.60;;
8683;SDS011;4379;59.744;18.206;2023-11-18T08:35:51;1.00;;;1.00;;
8683;SDS011;4379;59.744;18.206;2023-11-18T08:38:17;0.60;;;0.60;;
8683;SDS011;4379;59.744;18.206;2023-11-18T08:40:46;0.70;;;0.70;;
8683;SDS011;4379;59.744;18.206;2023-11-18T08:43:15;1.23;;;0.80;;
8683;SDS011;4379;59.744;18.206;2023-11-18T08:45:43;0.80;;;0.80;;
8683;SDS011;4379;59.744;18.206;2023-11-18T08:48:11;0.77;;;0.77;;
8683;SDS011;4379;59.744;18.206;2023-11-18T08:50:38;0.90;;;0.90;;
8683;SDS011;4379;59.744;18.206;2023-11-18T08:53:09;0.77;;;0.77;;
8683;SDS011;4379;59.744;18.206;2023-11-18T08:55:38;0.83;;;0.83;;
8683;SDS011;4379;59.744;18.206;2023-11-18T08:58:09;0.87;;;0.87;;
8683;SDS011;4379;59.744;18.206;2023-11-18T09:00:50;0.90;;;0.90;;
8683;SDS011;4379;59.744;18.206;2023-11-18T09:03:33;0.83;;;0.83;;
8683;SDS011;4379;59.744;18.206;2023-11-18T09:06:04;0.90;;;0.90;;
8683;SDS011;4379;59.744;18.206;2023-11-18T09:08:38;0.77;;;0.77;;
8683;SDS011;4379;59.744;18.206;2023-11-18T09:11:10;0.77;;;0.77;;
8683;SDS011;4379;59.744;18.206;2023-11-18T09:13:44;0.90;;;0.90;;
8683;SDS011;4379;59.744;18.206;2023-11-18T09:16:16;1.10;;;1.10;;
8683;SDS011;4379;59.744;18.206;2023-11-18T09:18:43;1.47;;;1.30;;
8683;SDS011;4379;59.744;18.206;2023-11-18T09:21:13;1.20;;;1.20;;
8683;SDS011;4379;59.744;18.206;2023-11-18T09:23:46;1.53;;;1.50;;
8683;SDS011;4379;59.744;18.206;2023-11-18T09:26:15;1.87;;;1.77;;
8683;SDS011;4379;59.744;18.206;2023-11-18T09:28:43;1.50;;;1.50;;
8683;SDS011;4379;59.744;18.206;2023-11-18T09:31:11;1.47;;;1.40;;
8683;SDS011;4379;59.744;18.206;2023-11-18T09:33:40;1.47;;;1.47;;
8683;SDS011;4379;59.744;18.206;2023-11-18T09:36:13;1.30;;;1.30;;
8683;SDS011;4379;59.744;18.206;2023-11-18T09:38:40;1.50;;;1.50;;
8683;SDS011;4379;59.744;18.206;2023-11-18T09:41:09;1.83;;;1.80;;
8683;SDS011;4379;59.744;18.206;2023-11-18T09:43:40;1.60;;;1.50;;
8683;SDS011;4379;59.744;18.206;2023-11-18T09:46:10;1.63;;;1.63;;
8683;SDS011;4379;59.744;18.206;2023-11-18T09:51:20;1.40;;;1.40;;
8683;SDS011;4379;59.744;18.206;2023-11-18T09:53:52;1.17;;;1.17;;
8683;SDS011;4379;59.744;18.206;2023-11-18T09:59:20;2.87;;;1.40;;
8683;SDS011;4379;59.744;18.206;2023-11-18T10:01:57;1.30;;;1.30;;
8683;SDS011;4379;59.744;18.206;2023-11-18T10:04:24;1.17;;;1.17;;
8683;SDS011;4379;59.744;18.206;2023-11-18T10:06:54;1.37;;;1.37;;
8683;SDS011;4379;59.744;18.206;2023-11-18T10:09:23;1.30;;;1.27;;
8683;SDS011;4379;59.744;18.206;2023-11-18T10:12:19;1.10;;;1.10;;
8683;SDS011;4379;59.744;18.206;2023-11-18T10:14:50;1.20;;;1.20;;
8683;SDS011;4379;59.744;18.206;2023-11-18T10:17:18;1.10;;;1.10;;
8683;SDS011;4379;59.744;18.206;2023-11-18T10:19:58;1.00;;;1.00;;
8683;SDS011;4379;59.744;18.206;2023-11-18T10:22:39;1.13;;;1.13;;
8683;SDS011;4379;59.744;18.206;2023-11-18T10:25:07;1.30;;;1.20;;
8683;SDS011;4379;59.744;18.206;2023-11-18T10:27:34;1.70;;;1.60;;
8683;SDS011;4379;59.744;18.206;2023-11-18T10:30:02;1.70;;;1.60;;
8683;SDS011;4379;59.744;18.206;2023-11-18T10:32:31;1.13;;;1.13;;
8683;SDS011;4379;59.744;18.206;2023-11-18T10:35:06;1.27;;;1.27;;
8683;SDS011;4379;59.744;18.206;2023-11-18T10:37:36;1.33;;;1.23;;
8683;SDS011;4379;59.744;18.206;2023-11-18T10:40:10;1.57;;;1.43;;
8683;SDS011;4379;59.744;18.206;2023-11-18T10:42:41;1.17;;;1.17;;
8683;SDS011;4379;59.744;18.206;2023-11-18T10:45:13;1.63;;;1.53;;
8683;SDS011;4379;59.744;18.206;2023-11-18T10:47:51;1.23;;;1.23;;
8683;SDS011;4379;59.744;18.206;2023-11-18T10:50:22;1.30;;;1.30;;
8683;SDS011;4379;59.744;18.206;2023-11-18T10:52:49;1.70;;;1.60;;
8683;SDS011;4379;59.744;18.206;2023-11-18T10:55:17;1.40;;;1.40;;
8683;SDS011;4379;59.744;18.206;2023-11-18T10:57:45;2.10;;;2.00;;
8683;SDS011;4379;59.744;18.206;2023-11-18T11:00:13;1.70;;;1.60;;
8683;SDS011;4379;59.744;18.206;2023-11-18T11:02:41;1.53;;;1.53;;
8683;SDS011;4379;59.744;18.206;2023-11-18T11:05:08;1.57;;;1.57;;
8683;SDS011;4379;59.744;18.206;2023-11-18T11:07:47;1.60;;;1.50;;
8683;SDS011;4379;59.744;18.206;2023-11-18T11:10:18;1.70;;;1.43;;
8683;SDS011;4379;59.744;18.206;2023-11-18T11:12:52;1.40;;;1.40;;
8683;SDS011;4379;59.744;18.206;2023-11-18T11:15:24;1.43;;;1.33;;
8683;SDS011;4379;59.744;18.206;2023-11-18T11:18:07;1.97;;;1.60;;
8683;SDS011;4379;59.744;18.206;2023-11-18T11:20:42;1.40;;;1.27;;
8683;SDS011;4379;59.744;18.206;2023-11-18T11:23:27;1.57;;;1.47;;
8683;SDS011;4379;59.744;18.206;2023-11-18T11:29:07;1.20;;;1.20;;
8683;SDS011;4379;59.744;18.206;2023-11-18T11:32:00;1.10;;;1.10;;
8683;SDS011;4379;59.744;18.206;2023-11-18T11:34:51;1.60;;;1.50;;
8683;SDS011;4379;59.744;18.206;2023-11-18T11:37:23;1.80;;;1.70;;
8683;SDS011;4379;59.744;18.206;2023-11-18T11:39:56;1.97;;;1.40;;
8683;SDS011;4379;59.744;18.206;2023-11-18T11:42:26;3.00;;;1.30;;
8683;SDS011;4379;59.744;18.206;2023-11-18T11:44:53;1.10;;;1.10;;
8683;SDS011;4379;59.744;18.206;2023-11-18T11:47:22;1.03;;;1.03;;
8683;SDS011;4379;59.744;18.206;2023-11-18T11:50:01;1.10;;;1.10;;
8683;SDS011;4379;59.744;18.206;2023-11-18T11:53:01;1.37;;;1.00;;
8683;SDS011;4379;59.744;18.206;2023-11-18T11:55:53;1.10;;;1.10;;
8683;SDS011;4379;59.744;18.206;2023-11-18T11:58:35;1.20;;;1.10;;
8683;SDS011;4379;59.744;18.206;2023-11-18T12:03:45;1.30;;;1.30;;
8683;SDS011;4379;59.744;18.206;2023-11-18T12:06:18;1.30;;;1.30;;
8683;SDS011;4379;59.744;18.206;2023-11-18T12:08:53;1.33;;;1.30;;
8683;SDS011;4379;59.744;18.206;2023-11-18T12:11:21;1.20;;;1.20;;
8683;SDS011;4379;59.744;18.206;2023-11-18T12:14:05;1.20;;;1.20;;
8683;SDS011;4379;59.744;18.206;2023-11-18T12:19:48;0.93;;;0.93;;
8683;SDS011;4379;59.744;18.206;2023-11-18T12:22:18;0.97;;;0.97;;
8683;SDS011;4379;59.744;18.206;2023-11-18T12:35:28;1.10;;;1.10;;
8683;SDS011;4379;59.744;18.206;2023-11-18T12:40:55;1.50;;;1.50;;
8683;SDS011;4379;59.744;18.206;2023-11-18T12:49:01;1.23;;;1.23;;
8683;SDS011;4379;59.744;18.206;2023-11-18T12:51:29;1.70;;;1.30;;
8683;SDS011;4379;59.744;18.206;2023-11-18T12:54:01;1.30;;;1.30;;
8683;SDS011;4379;59.744;18.206;2023-11-18T12:56:29;2.40;;;1.30;;
8683;SDS011;4379;59.744;18.206;2023-11-18T12:58:57;1.17;;;1.17;;
8683;SDS011;4379;59.744;18.206;2023-11-18T13:01:25;1.20;;;1.20;;
8683;SDS011;4379;59.744;18.206;2023-11-18T13:03:54;1.13;;;1.13;;
8683;SDS011;4379;59.744;18.206;2023-11-18T13:06:21;1.60;;;1.00;;
8683;SDS011;4379;59.744;18.206;2023-11-18T13:08:53;1.20;;;1.20;;
8683;SDS011;4379;59.744;18.206;2023-11-18T13:11:21;1.20;;;1.10;;
8683;SDS011;4379;59.744;18.206;2023-11-18T13:13:53;1.37;;;1.33;;
8683;SDS011;4379;59.744;18.206;2023-11-18T13:16:20;1.80;;;1.67;;
8683;SDS011;4379;59.744;18.206;2023-11-18T13:18:48;1.50;;;1.43;;
8683;SDS011;4379;59.744;18.206;2023-11-18T13:21:16;1.80;;;1.70;;
8683;SDS011;4379;59.744;18.206;2023-11-18T13:23:45;1.60;;;1.50;;
8683;SDS011;4379;59.744;18.206;2023-11-18T13:26:16;1.60;;;1.50;;
8683;SDS011;4379;59.744;18.206;2023-11-18T13:28:46;1.70;;;1.60;;
8683;SDS011;4379;59.744;18.206;2023-11-18T13:31:14;1.63;;;1.53;;
8683;SDS011;4379;59.744;18.206;2023-11-18T13:33:43;1.90;;;1.80;;
8683;SDS011;4379;59.744;18.206;2023-11-18T13:36:14;1.50;;;1.50;;
8683;SDS011;4379;59.744;18.206;2023-11-18T13:38:41;2.30;;;2.20;;
8683;SDS011;4379;59.744;18.206;2023-11-18T13:41:08;2.23;;;2.13;;
8683;SDS011;4379;59.744;18.206;2023-11-18T13:43:46;2.33;;;2.20;;
8683;SDS011;4379;59.744;18.206;2023-11-18T13:46:19;2.23;;;2.13;;
8683;SDS011;4379;59.744;18.206;2023-11-18T13:48:49;2.07;;;1.97;;
8683;SDS011;4379;59.744;18.206;2023-11-18T13:51:18;2.27;;;2.17;;
8683;SDS011;4379;59.744;18.206;2023-11-18T13:53:48;1.67;;;1.57;;
8683;SDS011;4379;59.744;18.206;2023-11-18T13:56:15;2.57;;;1.97;;
8683;SDS011;4379;59.744;18.206;2023-11-18T13:58:44;1.90;;;1.80;;
8683;SDS011;4379;59.744;18.206;2023-11-18T14:01:12;1.90;;;1.70;;
8683;SDS011;4379;59.744;18.206;2023-11-18T14:03:39;1.63;;;1.53;;
8683;SDS011;4379;59.744;18.206;2023-11-18T14:06:07;2.03;;;2.00;;
8683;SDS011;4379;59.744;18.206;2023-11-18T14:08:37;1.80;;;1.70;;
8683;SDS011;4379;59.744;18.206;2023-11-18T14:11:05;1.97;;;1.80;;
8683;SDS011;4379;59.744;18.206;2023-11-18T14:13:43;1.90;;;1.83;;
8683;SDS011;4379;59.744;18.206;2023-11-18T14:16:10;1.60;;;1.60;;
8683;SDS011;4379;59.744;18.206;2023-11-18T14:18:39;1.50;;;1.50;;
8683;SDS011;4379;59.744;18.206;2023-11-18T14:21:08;1.60;;;1.60;;
8683;SDS011;4379;59.744;18.206;2023-11-18T14:23:36;1.83;;;1.73;;
8683;SDS011;4379;59.744;18.206;2023-11-18T14:26:04;2.00;;;1.90;;
8683;SDS011;4379;59.744;18.206;2023-11-18T14:28:34;1.60;;;1.60;;
8683;SDS011;4379;59.744;18.206;2023-11-18T14:31:02;2.13;;;1.63;;
8683;SDS011;4379;59.744;18.206;2023-11-18T14:33:34;1.67;;;1.67;;
8683;SDS011;4379;59.744;18.206;2023-11-18T14:36:01;2.10;;;1.83;;
8683;SDS011;4379;59.744;18.206;2023-11-18T14:38:32;1.30;;;1.30;;
8683;SDS011;4379;59.744;18.206;2023-11-18T14:41:01;1.60;;;1.60;;
8683;SDS011;4379;59.744;18.206;2023-11-18T14:43:29;1.83;;;1.73;;
8683;SDS011;4379;59.744;18.206;2023-11-18T14:45:56;1.50;;;1.40;;
8683;SDS011;4379;59.744;18.206;2023-11-18T14:48:24;1.60;;;1.60;;
8683;SDS011;4379;59.744;18.206;2023-11-18T14:50:51;1.70;;;1.50;;
8683;SDS011;4379;59.744;18.206;2023-11-18T14:53:18;1.70;;;1.70;;
8683;SDS011;4379;59.744;18.206;2023-11-18T14:55:46;1.73;;;1.63;;
8683;SDS011;4379;59.744;18.206;2023-11-18T14:58:13;1.70;;;1.60;;
8683;SDS011;4379;59.744;18.206;2023-11-18T15:00:40;1.50;;;1.50;;
8683;SDS011;4379;59.744;18.206;2023-11-18T15:03:09;1.40;;;1.40;;
8683;SDS011;4379;59.744;18.206;2023-11-18T15:05:36;1.90;;;1.80;;
8683;SDS011;4379;59.744;18.206;2023-11-18T15:08:05;1.83;;;1.73;;
8683;SDS011;4379;59.744;18.206;2023-11-18T15:10:36;1.60;;;1.53;;
8683;SDS011;4379;59.744;18.206;2023-11-18T15:13:06;1.77;;;1.67;;
8683;SDS011;4379;59.744;18.206;2023-11-18T15:15:33;1.83;;;1.80;;
8683;SDS011;4379;59.744;18.206;2023-11-18T15:18:02;1.60;;;1.50;;
8683;SDS011;4379;59.744;18.206;2023-11-18T15:20:32;1.90;;;1.80;;
8683;SDS011;4379;59.744;18.206;2023-11-18T15:22:59;2.50;;;1.70;;
8683;SDS011;4379;59.744;18.206;2023-11-18T15:25:26;1.97;;;1.80;;
8683;SDS011;4379;59.744;18.206;2023-11-18T15:27:54;1.83;;;1.83;;
8683;SDS011;4379;59.744;18.206;2023-11-18T15:30:22;2.00;;;1.90;;
8683;SDS011;4379;59.744;18.206;2023-11-18T15:32:51;2.37;;;1.70;;
8683;SDS011;4379;59.744;18.206;2023-11-18T15:35:18;2.00;;;1.90;;
8683;SDS011;4379;59.744;18.206;2023-11-18T15:37:47;2.10;;;1.97;;
8683;SDS011;4379;59.744;18.206;2023-11-18T15:40:15;2.20;;;2.10;;
8683;SDS011;4379;59.744;18.206;2023-11-18T15:42:46;1.90;;;1.80;;
8683;SDS011;4379;59.744;18.206;2023-11-18T15:45:18;2.20;;;1.70;;
8683;SDS011;4379;59.744;18.206;2023-11-18T15:47:46;2.00;;;1.90;;
8683;SDS011;4379;59.744;18.206;2023-11-18T15:50:15;1.80;;;1.70;;
8683;SDS011;4379;59.744;18.206;2023-11-18T15:52:43;2.10;;;2.00;;